DW9780 Oslo NO current weather conditions

sailwx.info

Wind from 113 at 7 knots gusting 15

Air temperature 14.4° C
Dewpoint -41.1° C

Last reported at 2019-Aug-17 10:00 UTC.
Time now 2019-Aug-17 11:00 UTC

Location: N 59°47' E 010°42'.
View on Google Maps.

See reports from other nearby stations

  
Tides and Currents Weather Stations Pressure Air Temp Water Temp Dewpoint Dewpoint Depression Visibility Wind Speed Wind Dir Waves Ship Positions
date/time (UTC)wind fromknots sea level pressurealtimeterstation pressurevisibilityair tempwater tempwave heightnotes
2019-Aug-17 10:00 113 7 gusting 15 14.4
2019-Aug-17 09:45 128 4 gusting 13 14.4
2019-Aug-17 09:30 100 6 gusting 13 14.4
2019-Aug-17 09:15 119 6 gusting 15 14.4
2019-Aug-17 09:01 171 6 gusting 13 13.9
2019-Aug-17 08:46 127 6 gusting 16 13.9
2019-Aug-17 08:32 166 4 gusting 8 13.9
2019-Aug-17 08:16 184 5 gusting 15 13.9
2019-Aug-17 08:01 109 5 gusting 15 13.9
2019-Aug-17 07:45 124 4 gusting 12 13.9
2019-Aug-17 07:31 161 4 gusting 12 13.9
2019-Aug-17 07:16 153 6 gusting 13 13.3
2019-Aug-17 07:00 122 6 gusting 12 13.3
2019-Aug-17 06:45 168 5 gusting 11 13.3
2019-Aug-17 06:30 203 5 gusting 9 13.3
2019-Aug-17 06:15 161 4 gusting 9 12.8
2019-Aug-17 06:00 159 3 gusting 7 12.8
2019-Aug-17 05:46 178 4 gusting 8 12.8
2019-Aug-17 05:31 158 1 gusting 7 13.3
2019-Aug-17 05:16 129 2 gusting 7 13.3
2019-Aug-17 05:02 148 1 gusting 4 13.3
2019-Aug-17 04:46 144 1 gusting 8 13.3
2019-Aug-17 04:31 165 3 gusting 9 13.9
2019-Aug-17 04:16 124 4 gusting 9 13.9
2019-Aug-17 04:00 175 3 gusting 6 14.4
2019-Aug-17 03:45 162 1 gusting 6 14.4
2019-Aug-17 03:30 219 0 gusting 6 14.4
2019-Aug-17 03:15 153 1 gusting 6 14.4
2019-Aug-17 03:00 161 1 gusting 6 14.4
2019-Aug-17 02:45 183 2 gusting 6 14.4
2019-Aug-17 02:30 148 2 gusting 6 14.4
2019-Aug-17 02:15 171 13.9
2019-Aug-17 02:02 163 13.9
2019-Aug-17 01:46 203 13.9
2019-Aug-17 01:32 186 2 gusting 6 13.9
2019-Aug-17 01:16 213 3 gusting 6 13.9
2019-Aug-17 01:01 173 1 gusting 7 13.9
2019-Aug-17 00:45 171 1 gusting 7 13.9
2019-Aug-17 00:31 171 1 gusting 9 13.9
2019-Aug-17 00:16 178 6 gusting 11 13.9
2019-Aug-17 00:00 191 3 gusting 8 13.9
2019-Aug-16 23:46 172 2 gusting 6 13.9
2019-Aug-16 23:30 156 2 gusting 6 13.9
2019-Aug-16 23:15 174 3 gusting 6 13.9
2019-Aug-16 23:00 222 3 gusting 7 13.3
2019-Aug-16 22:46 182 4 gusting 10 13.9
2019-Aug-16 22:31 194 0 gusting 5 13.9
2019-Aug-16 22:17 211 3 gusting 7 13.9
2019-Aug-16 22:01 154 3 gusting 7 13.9
2019-Aug-16 21:45 156 2 gusting 6 13.9
2019-Aug-16 21:31 143 4 gusting 8 13.9
2019-Aug-16 21:15 201 2 gusting 6 13.9
2019-Aug-16 21:01 140 3 gusting 8 13.9
2019-Aug-16 20:45 161 2 gusting 6 14.4
2019-Aug-16 20:31 150 3 gusting 7 14.4
2019-Aug-16 20:15 113 2 gusting 7 14.4
2019-Aug-16 20:00 142 2 gusting 6 14.4
2019-Aug-16 19:45 165 1 gusting 10 15.0
2019-Aug-16 19:30 164 2 gusting 6 15.0
2019-Aug-16 19:17 144 2 gusting 9 15.0
2019-Aug-16 19:02 161 5 gusting 10 15.0
2019-Aug-16 18:46 181 2 gusting 7 15.0
2019-Aug-16 18:31 122 4 gusting 13 15.0
2019-Aug-16 18:15 148 3 gusting 9 15.6
2019-Aug-16 18:01 178 2 gusting 8 15.6
2019-Aug-16 17:45 178 2 gusting 6 16.1
2019-Aug-16 17:31 152 6 gusting 10 16.1
2019-Aug-16 17:15 138 5 gusting 10 16.7
2019-Aug-16 17:00 169 5 gusting 11 16.7
2019-Aug-16 16:45 168 3 gusting 9 17.2
2019-Aug-16 16:30 171 6 gusting 13 17.8
2019-Aug-16 16:15 181 3 gusting 8 17.8
2019-Aug-16 16:01 190 4 gusting 7 17.2
2019-Aug-16 15:46 159 4 gusting 13 17.2
2019-Aug-16 15:33 134 5 gusting 13 17.8
2019-Aug-16 15:16 155 3 gusting 9 17.8
2019-Aug-16 15:01 148 3 gusting 10 17.8
2019-Aug-16 14:46 161 3 gusting 8 17.8
2019-Aug-16 14:31 165 6 gusting 11 18.3
2019-Aug-16 14:16 136 2 gusting 8 18.3
2019-Aug-16 14:01 121 3 gusting 10 18.3
2019-Aug-16 13:46 153 2 gusting 8 18.3
2019-Aug-16 13:30 109 0 gusting 9 18.9
2019-Aug-16 13:15 114 3 gusting 7 18.9
2019-Aug-16 13:00 121 2 gusting 6 18.3
2019-Aug-16 12:45 208 0 gusting 6 17.8
2019-Aug-16 12:32 199 1 gusting 6 17.8
2019-Aug-16 12:19 188 0 gusting 4 17.8
2019-Aug-16 12:01 167 1 gusting 7 17.2
2019-Aug-16 11:46 158 2 gusting 6 17.2
2019-Aug-16 11:31 115 16.7
2019-Aug-16 11:16 122 16.7
2019-Aug-16 11:00 094 16.7
2019-Aug-16 10:46 155 16.1
2019-Aug-16 10:31 155 16.1
2019-Aug-16 10:15 155 15.6
2019-Aug-16 10:00 157 15.0
2019-Aug-16 09:45 157 15.0
2019-Aug-16 09:30 157 15.0
2019-Aug-16 09:16 157 15.0
2019-Aug-16 09:02 157 14.4
2019-Aug-16 08:46 157 14.4
2019-Aug-16 08:31 157 14.4
2019-Aug-16 08:16 157 13.9
2019-Aug-16 08:01 157 13.9
2019-Aug-16 07:45 157 13.9
2019-Aug-16 07:30 157 13.3
2019-Aug-16 07:17 157 13.9
2019-Aug-16 07:00 157 13.9
2019-Aug-16 06:45 157 13.3
2019-Aug-16 06:30 157 13.3
2019-Aug-16 06:15 157 13.3
2019-Aug-16 06:00 157 13.3
2019-Aug-16 05:46 157 13.3
2019-Aug-16 05:32 157 12.8
2019-Aug-16 05:17 157 12.8
2019-Aug-16 05:02 157 12.8
2019-Aug-16 04:46 157 12.8
2019-Aug-16 04:31 157 12.8
2019-Aug-16 04:15 157 12.8
2019-Aug-16 04:00 157 0 gusting 3 12.8
2019-Aug-16 03:45 132 12.8
2019-Aug-16 03:31 132 12.8
2019-Aug-16 03:15 092 0 gusting 4 12.8
2019-Aug-16 03:00 140 1 gusting 3 12.8
2019-Aug-16 02:45 171 13.3
2019-Aug-16 02:32 152 0 gusting 4 13.3
2019-Aug-16 02:17 195 13.3
2019-Aug-16 02:01 186 13.9
2019-Aug-16 01:47 161 13.9
2019-Aug-16 01:30 150 0 gusting 7 13.9
2019-Aug-16 01:16 171 0 gusting 3 13.9
2019-Aug-16 01:01 190 13.9
2019-Aug-16 00:45 155 13.9
2019-Aug-16 00:30 156 13.9
2019-Aug-16 00:16 126 13.9
2019-Aug-16 00:00 111 0 gusting 2 13.9
2019-Aug-15 23:45 155 13.9
2019-Aug-15 23:30 149 0 gusting 4 13.3
2019-Aug-15 23:15 116 13.3
2019-Aug-15 23:02 196 13.3
2019-Aug-15 22:46 196 13.3
2019-Aug-15 22:31 196 13.3
2019-Aug-15 22:16 196 13.9
2019-Aug-15 21:46 152 13.9
2019-Aug-15 21:30 193 13.9
2019-Aug-15 21:15 156 13.9
2019-Aug-15 21:00 154 0 gusting 4 13.9
2019-Aug-15 20:45 162 13.9
2019-Aug-15 20:30 162 13.9
2019-Aug-15 20:15 192 13.9
2019-Aug-15 20:00 173 13.3
2019-Aug-15 19:46 157 12.8
2019-Aug-15 19:33 157 12.8
2019-Aug-15 19:16 157 12.8
2019-Aug-15 19:01 157 13.3
2019-Aug-15 18:47 157 13.3
2019-Aug-15 18:31 157 13.9
2019-Aug-15 18:16 157 14.4
2019-Aug-15 18:02 157 15.0
2019-Aug-15 17:46 157 15.6
2019-Aug-15 17:30 157 15.6
2019-Aug-15 17:15 175 0 gusting 2 15.6
2019-Aug-15 17:01 167 0 gusting 4 15.6
2019-Aug-15 16:45 174 15.6
2019-Aug-15 16:30 219 15.6
2019-Aug-15 16:15 154 15.6
2019-Aug-15 16:00 181 15.6
2019-Aug-15 15:47 205 0 gusting 6 15.6
2019-Aug-15 15:33 201 0 gusting 5 15.6
2019-Aug-15 15:16 146 1 gusting 6 15.6
2019-Aug-15 15:01 157 3 gusting 7 16.1
2019-Aug-15 14:46 175 1 gusting 6 16.1
2019-Aug-15 14:31 220 2 gusting 6 16.1
2019-Aug-15 14:15 168 4 gusting 10 16.1
2019-Aug-15 14:00 148 2 gusting 12 16.7
2019-Aug-15 13:45 134 4 gusting 10 17.2
2019-Aug-15 13:30 173 2 gusting 6 17.8
2019-Aug-15 13:15 200 5 gusting 11 18.3
2019-Aug-15 13:00 256 3 gusting 9 17.8
2019-Aug-15 12:45 249 3 gusting 7 17.8
2019-Aug-15 12:32 199 3 gusting 12 18.3
2019-Aug-15 12:16 153 2 gusting 13 17.8
2019-Aug-15 12:01 129 4 gusting 13 17.8
2019-Aug-15 11:46 204 2 gusting 10 17.8
2019-Aug-15 11:31 188 3 gusting 11 17.2
2019-Aug-15 11:16 167 3 gusting 10 17.2
2019-Aug-15 11:01 154 2 gusting 10 17.2